logo dgac
Viernes 24 de Noviembre del 2017
Buscar por aerodromo o helipuerto
Ingrese nombre de aeródromo, localidad o designador OACI:
METAR del 24-11-2017 a las 18:00 UTC
METAR SCIR 241800Z 14018KT 8000 BKN016 BKN028 14/07 Q1027
Viento: dirección 140 grados, velocidad 18 nudos
Visibilidad: 8000 metros
Nubes: Nublado a 1600 pies sobre el nivel del aeródromo
Nubes: Nublado a 2800 pies sobre el nivel del aeródromo
Temperatura: 14 °C
Rocío: 7 °C
Humedad_relativa: 63%
Presión: 1027 hPa
METAR del 24-11-2017 a las 17:00 UTC
METAR SCIR 241700Z 13022KT 9999 BKN018 BKN028 14/08 Q1027
Viento: dirección 130 grados, velocidad 22 nudos
Visibilidad: 10 km o más
Nubes: Nublado a 1800 pies sobre el nivel del aeródromo
Nubes: Nublado a 2800 pies sobre el nivel del aeródromo
Temperatura: 14 °C
Rocío: 8 °C
Humedad_relativa: 67%
Presión: 1027 hPa
METAR del 24-11-2017 a las 17:00 UTC
METAR SCIR 241700Z 13022KT 9999 BKN018 BKN028 14/08 Q1027
Viento: dirección 130 grados, velocidad 22 nudos
Visibilidad: 10 km o más
Nubes: Nublado a 1800 pies sobre el nivel del aeródromo
Nubes: Nublado a 2800 pies sobre el nivel del aeródromo
Temperatura: 14 °C
Rocío: 8 °C
Humedad_relativa: 67%
Presión: 1027 hPa
METAR del 24-11-2017 a las 16:00 UTC
METAR SCIR 241600Z 15021KT 8000 BKN016 BKN028 13/07 Q1027
Viento: dirección 150 grados, velocidad 21 nudos
Visibilidad: 8000 metros
Nubes: Nublado a 1600 pies sobre el nivel del aeródromo
Nubes: Nublado a 2800 pies sobre el nivel del aeródromo
Temperatura: 13 °C
Rocío: 7 °C
Humedad_relativa: 67%
Presión: 1027 hPa
METAR del 24-11-2017 a las 15:00 UTC
METAR SCIR 241500Z 14026KT 7000 BKN015 OVC026 13/08 Q1026
Viento: dirección 140 grados, velocidad 26 nudos
Visibilidad: 7000 metros
Nubes: Nublado a 1500 pies sobre el nivel del aeródromo
Nubes: Cubierto a 2600 pies sobre el nivel del aeródromo
Temperatura: 13 °C
Rocío: 8 °C
Humedad_relativa: 72%
Presión: 1026 hPa
METAR del 24-11-2017 a las 13:00 UTC
METAR SCIR 241300Z 12022KT 7000 BKN015 BKN026 12/07 Q1026
Viento: dirección 120 grados, velocidad 22 nudos
Visibilidad: 7000 metros
Nubes: Nublado a 1500 pies sobre el nivel del aeródromo
Nubes: Nublado a 2600 pies sobre el nivel del aeródromo
Temperatura: 12 °C
Rocío: 7 °C
Humedad_relativa: 71%
Presión: 1026 hPa
METAR del 24-11-2017 a las 12:00 UTC
METAR SCIR 241200Z 16020KT 6000 BKN013 OVC026 12/07 Q1025
Viento: dirección 160 grados, velocidad 20 nudos
Visibilidad: 6000 metros
Nubes: Nublado a 1300 pies sobre el nivel del aeródromo
Nubes: Cubierto a 2600 pies sobre el nivel del aeródromo
Temperatura: 12 °C
Rocío: 7 °C
Humedad_relativa: 71%
Presión: 1025 hPa
SPECI del 24-11-2017 a las 11:09 UTC
SPECI SCIR 241109Z 16022KT 7000 BKN013 BKN026 12/06 Q1025
Viento: dirección 160 grados, velocidad 22 nudos
Visibilidad: 7000 metros
Nubes: Nublado a 1300 pies sobre el nivel del aeródromo
Nubes: Nublado a 2600 pies sobre el nivel del aeródromo
Temperatura: 12 °C
Rocío: 6 °C
Humedad_relativa: 67%
Presión: 1025 hPa
METAR del 23-11-2017 a las 23:00 UTC
METAR SCIR 232300Z 16017KT 9000 BKN015 OVC028 13/10 Q1022
Viento: dirección 160 grados, velocidad 17 nudos
Visibilidad: 9000 metros
Nubes: Nublado a 1500 pies sobre el nivel del aeródromo
Nubes: Cubierto a 2800 pies sobre el nivel del aeródromo
Temperatura: 13 °C
Rocío: 10 °C
Humedad_relativa: 82%
Presión: 1022 hPa
METAR del 23-11-2017 a las 20:00 UTC
METAR SCIR 232000Z 14020KT 9999 BKN015 OVC025 14/10 Q1022
Viento: dirección 140 grados, velocidad 20 nudos
Visibilidad: 10 km o más
Nubes: Nublado a 1500 pies sobre el nivel del aeródromo
Nubes: Cubierto a 2500 pies sobre el nivel del aeródromo
Temperatura: 14 °C
Rocío: 10 °C
Humedad_relativa: 77%
Presión: 1022 hPa